Original METAR for KWJF:
072056Z VRB03KT 10SM CLR 39/03 A2998 RMK AO2 SLP124 T03890028 58016

Wind: Variable at 3 knots
Visibility: 10 statute miles
Sky conditions: Clear
Temperature: 102.2°F
Dew Point: 37.4°F
Altimeter: 29.98

Remarks:
-- METAR generated by an automated station with a precipitation discriminator.
-- Sea level pressure: 1,012.4 millibars.
-- Precise hourly temperature and dew point: 38.9°C / 2.8°C

NOTE:
This METAR was retrieved from metars.com at:
http://www.metars.com/stations/KWJF.html


Cessnas2Oshkosh, C2O, CessnaBaseCamp and The Pirep | Testimonials | Donations | FAQ | Privacy | Contact Us
are trademarks of Cessnas 2 Oshkosh, Inc. - Dothan, AL Copyright © 2008 - 2022 Cessnas 2 Oshkosh, Inc. All rights reserved.